sensor_id;sensor_type;location;lat;lon;timestamp;pressure;altitude;pressure_sealevel;temperature;humidity
39301;BME280;25019;42.626;23.380;2023-02-28T00:00:18;94737.53;;;4.77;100.00
39301;BME280;25019;42.626;23.380;2023-02-28T00:02:45;94876.41;;;5.69;100.00
39301;BME280;25019;42.626;23.380;2023-02-28T00:05:13;94875.19;;;5.65;100.00
39301;BME280;25019;42.626;23.380;2023-02-28T00:07:39;94881.47;;;5.71;100.00
39301;BME280;25019;42.626;23.380;2023-02-28T00:10:06;94857.16;;;5.49;100.00
39301;BME280;25019;42.626;23.380;2023-02-28T00:12:33;94887.16;;;5.61;100.00
39301;BME280;25019;42.626;23.380;2023-02-28T00:15:01;94880.06;;;5.68;100.00
39301;BME280;25019;42.626;23.380;2023-02-28T00:17:26;94878.41;;;5.74;100.00
39301;BME280;25019;42.626;23.380;2023-02-28T00:19:52;94882.28;;;5.78;100.00
39301;BME280;25019;42.626;23.380;2023-02-28T00:22:20;94886.13;;;5.82;100.00
39301;BME280;25019;42.626;23.380;2023-02-28T00:24:46;94833.25;;;5.50;100.00
39301;BME280;25019;42.626;23.380;2023-02-28T00:27:13;94875.56;;;5.82;100.00
39301;BME280;25019;42.626;23.380;2023-02-28T00:29:39;94867.66;;;5.82;100.00
39301;BME280;25019;42.626;23.380;2023-02-28T00:32:05;94876.56;;;5.88;100.00
39301;BME280;25019;42.626;23.380;2023-02-28T00:34:31;94880.25;;;5.80;100.00
39301;BME280;25019;42.626;23.380;2023-02-28T00:37:07;94878.41;;;5.81;100.00
39301;BME280;25019;42.626;23.380;2023-02-28T00:39:35;94874.75;;;5.82;100.00
39301;BME280;25019;42.626;23.380;2023-02-28T00:42:02;94804.88;;;5.46;100.00
39301;BME280;25019;42.626;23.380;2023-02-28T00:44:29;94869.09;;;5.78;100.00
39301;BME280;25019;42.626;23.380;2023-02-28T00:46:55;94872.53;;;5.72;100.00
39301;BME280;25019;42.626;23.380;2023-02-28T00:49:24;94863.22;;;5.69;100.00
39301;BME280;25019;42.626;23.380;2023-02-28T00:51:50;94854.13;;;5.65;100.00
39301;BME280;25019;42.626;23.380;2023-02-28T00:54:16;94866.69;;;5.50;100.00
39301;BME280;25019;42.626;23.380;2023-02-28T00:56:41;94853.75;;;5.35;100.00
39301;BME280;25019;42.626;23.380;2023-02-28T00:59:07;94882.28;;;5.45;100.00
39301;BME280;25019;42.626;23.380;2023-02-28T01:01:33;94872.38;;;5.33;100.00
39301;BME280;25019;42.626;23.380;2023-02-28T01:03:58;94809.81;;;4.95;100.00
39301;BME280;25019;42.626;23.380;2023-02-28T01:06:24;94874.00;;;5.41;100.00
39301;BME280;25019;42.626;23.380;2023-02-28T01:08:50;94879.88;;;5.43;100.00
39301;BME280;25019;42.626;23.380;2023-02-28T01:11:17;94873.81;;;5.43;100.00
39301;BME280;25019;42.626;23.380;2023-02-28T01:13:45;94877.22;;;5.50;100.00
39301;BME280;25019;42.626;23.380;2023-02-28T01:16:12;94868.91;;;5.53;100.00
39301;BME280;25019;42.626;23.380;2023-02-28T01:18:39;94869.75;;;5.53;100.00
39301;BME280;25019;42.626;23.380;2023-02-28T01:21:06;94856.56;;;5.47;100.00
39301;BME280;25019;42.626;23.380;2023-02-28T01:23:33;94858.19;;;5.54;100.00
39301;BME280;25019;42.626;23.380;2023-02-28T01:26:10;94869.72;;;5.67;100.00
39301;BME280;25019;42.626;23.380;2023-02-28T01:28:38;94861.19;;;5.65;100.00
39301;BME280;25019;42.626;23.380;2023-02-28T01:31:05;94850.47;;;5.60;100.00
39301;BME280;25019;42.626;23.380;2023-02-28T01:33:31;94853.91;;;5.60;100.00
39301;BME280;25019;42.626;23.380;2023-02-28T01:35:59;94858.59;;;5.58;100.00
39301;BME280;25019;42.626;23.380;2023-02-28T01:38:25;94870.34;;;5.55;100.00
39301;BME280;25019;42.626;23.380;2023-02-28T01:40:53;94804.53;;;5.08;100.00
39301;BME280;25019;42.626;23.380;2023-02-28T01:43:27;94877.22;;;5.50;100.00
39301;BME280;25019;42.626;23.380;2023-02-28T01:45:55;94867.50;;;5.50;100.00
39301;BME280;25019;42.626;23.380;2023-02-28T01:48:25;94861.81;;;5.47;100.00
39301;BME280;25019;42.626;23.380;2023-02-28T01:50:54;94849.69;;;5.39;100.00
39301;BME280;25019;42.626;23.380;2023-02-28T01:53:28;94807.75;;;5.24;100.00
39301;BME280;25019;42.626;23.380;2023-02-28T01:55:56;94871.72;;;5.65;100.00
39301;BME280;25019;42.626;23.380;2023-02-28T01:58:22;94857.34;;;5.61;100.00
39301;BME280;25019;42.626;23.380;2023-02-28T02:00:48;94876.59;;;5.68;100.00
39301;BME280;25019;42.626;23.380;2023-02-28T02:03:16;94870.53;;;5.67;100.00
39301;BME280;25019;42.626;23.380;2023-02-28T02:05:47;94878.81;;;5.71;100.00
39301;BME280;25019;42.626;23.380;2023-02-28T02:08:26;94876.41;;;5.69;100.00
39301;BME280;25019;42.626;23.380;2023-02-28T02:10:59;94874.78;;;5.55;100.00
39301;BME280;25019;42.626;23.380;2023-02-28T02:25:19;94875.00;;;5.53;100.00
39301;BME280;25019;42.626;23.380;2023-02-28T02:41:20;94858.59;;;5.38;100.00
39301;BME280;25019;42.626;23.380;2023-02-28T02:43:51;94867.31;;;5.45;100.00
39301;BME280;25019;42.626;23.380;2023-02-28T02:46:31;94867.09;;;5.40;100.00
39301;BME280;25019;42.626;23.380;2023-02-28T02:49:00;94816.50;;;5.04;100.00
39301;BME280;25019;42.626;23.380;2023-02-28T02:51:30;94803.53;;;4.96;100.00
39301;BME280;25019;42.626;23.380;2023-02-28T02:54:23;94875.22;;;5.45;100.00
39301;BME280;25019;42.626;23.380;2023-02-28T02:56:57;94880.69;;;5.44;100.00
39301;BME280;25019;42.626;23.380;2023-02-28T02:59:24;94886.38;;;5.47;100.00
39301;BME280;25019;42.626;23.380;2023-02-28T03:01:57;94885.34;;;5.48;100.00
39301;BME280;25019;42.626;23.380;2023-02-28T03:04:25;94907.25;;;5.55;100.00
39301;BME280;25019;42.626;23.380;2023-02-28T03:06:53;94899.53;;;5.40;100.00
39301;BME280;25019;42.626;23.380;2023-02-28T03:09:23;94911.09;;;5.39;100.00
39301;BME280;25019;42.626;23.380;2023-02-28T03:11:51;94841.22;;;4.97;100.00
39301;BME280;25019;42.626;23.380;2023-02-28T03:14:55;94919.00;;;5.46;100.00
39301;BME280;25019;42.626;23.380;2023-02-28T03:20:01;94928.94;;;5.37;100.00
39301;BME280;25019;42.626;23.380;2023-02-28T03:22:52;94930.94;;;5.15;100.00
39301;BME280;25019;42.626;23.380;2023-02-28T03:30:40;94932.94;;;5.06;100.00
39301;BME280;25019;42.626;23.380;2023-02-28T03:33:11;94922.19;;;5.01;100.00
39301;BME280;25019;42.626;23.380;2023-02-28T03:35:50;94934.38;;;5.16;100.00
39301;BME280;25019;42.626;23.380;2023-02-28T03:40:52;94791.06;;;4.09;100.00
39301;BME280;25019;42.626;23.380;2023-02-28T03:43:24;94921.16;;;4.89;100.00
39301;BME280;25019;42.626;23.380;2023-02-28T03:45:54;94942.88;;;5.04;100.00
39301;BME280;25019;42.626;23.380;2023-02-28T03:51:07;94823.50;;;4.37;100.00
39301;BME280;25019;42.626;23.380;2023-02-28T03:53:42;94942.88;;;5.04;100.00
39301;BME280;25019;42.626;23.380;2023-02-28T03:56:52;94952.94;;;4.87;100.00
39301;BME280;25019;42.626;23.380;2023-02-28T03:59:13;94949.91;;;4.84;100.00
39301;BME280;25019;42.626;23.380;2023-02-28T04:01:42;94946.81;;;4.67;100.00
39301;BME280;25019;42.626;23.380;2023-02-28T04:04:09;94955.03;;;4.50;100.00
39301;BME280;25019;42.626;23.380;2023-02-28T04:06:36;94947.53;;;4.47;100.00
39301;BME280;25019;42.626;23.380;2023-02-28T04:09:03;94856.25;;;3.79;100.00
39301;BME280;25019;42.626;23.380;2023-02-28T04:11:37;94941.56;;;4.18;100.00
39301;BME280;25019;42.626;23.380;2023-02-28T04:14:04;94946.59;;;4.13;100.00
39301;BME280;25019;42.626;23.380;2023-02-28T04:16:31;94942.41;;;4.25;100.00
39301;BME280;25019;42.626;23.380;2023-02-28T04:18:58;94941.50;;;4.11;100.00
39301;BME280;25019;42.626;23.380;2023-02-28T04:21:28;94937.38;;;3.95;100.00
39301;BME280;25019;42.626;23.380;2023-02-28T04:23:55;94946.66;;;3.91;100.00
39301;BME280;25019;42.626;23.380;2023-02-28T04:26:20;94936.19;;;3.98;100.00
39301;BME280;25019;42.626;23.380;2023-02-28T04:28:46;94889.25;;;3.88;100.00
39301;BME280;25019;42.626;23.380;2023-02-28T04:31:11;94941.13;;;4.14;100.00
39301;BME280;25019;42.626;23.380;2023-02-28T04:33:37;94843.22;;;3.57;100.00
39301;BME280;25019;42.626;23.380;2023-02-28T04:36:05;94852.53;;;3.66;100.00
39301;BME280;25019;42.626;23.380;2023-02-28T04:38:36;94935.28;;;4.19;100.00
39301;BME280;25019;42.626;23.380;2023-02-28T04:41:03;94901.97;;;3.91;100.00
39301;BME280;25019;42.626;23.380;2023-02-28T04:43:30;94957.94;;;4.20;100.00
39301;BME280;25019;42.626;23.380;2023-02-28T04:45:57;94888.38;;;3.74;100.00
39301;BME280;25019;42.626;23.380;2023-02-28T04:48:23;94975.66;;;4.04;100.00
39301;BME280;25019;42.626;23.380;2023-02-28T04:50:50;94969.16;;;4.00;100.00
39301;BME280;25019;42.626;23.380;2023-02-28T04:53:16;94971.56;;;3.95;100.00
39301;BME280;25019;42.626;23.380;2023-02-28T04:55:42;94969.13;;;3.94;100.00
39301;BME280;25019;42.626;23.380;2023-02-28T04:58:07;94878.41;;;3.34;100.00
39301;BME280;25019;42.626;23.380;2023-02-28T05:00:33;94839.69;;;3.14;100.00
39301;BME280;25019;42.626;23.380;2023-02-28T05:02:58;94975.41;;;3.99;100.00
39301;BME280;25019;42.626;23.380;2023-02-28T05:05:24;94976.06;;;4.08;100.00
39301;BME280;25019;42.626;23.380;2023-02-28T05:07:49;94955.38;;;3.92;100.00
39301;BME280;25019;42.626;23.380;2023-02-28T05:10:15;94973.00;;;3.98;100.00
39301;BME280;25019;42.626;23.380;2023-02-28T05:12:41;94974.91;;;4.11;100.00
39301;BME280;25019;42.626;23.380;2023-02-28T05:15:10;94980.56;;;4.14;100.00
39301;BME280;25019;42.626;23.380;2023-02-28T05:17:37;94876.44;;;3.43;100.00
39301;BME280;25019;42.626;23.380;2023-02-28T05:20:03;94921.94;;;3.79;100.00
39301;BME280;25019;42.626;23.380;2023-02-28T05:22:30;94964.19;;;4.19;100.00
39301;BME280;25019;42.626;23.380;2023-02-28T05:24:55;94911.09;;;3.95;100.00
39301;BME280;25019;42.626;23.380;2023-02-28T05:27:21;94982.59;;;4.54;100.00
39301;BME280;25019;42.626;23.380;2023-02-28T05:29:47;94926.22;;;4.22;100.00
39301;BME280;25019;42.626;23.380;2023-02-28T05:32:12;94987.69;;;4.62;100.00
39301;BME280;25019;42.626;23.380;2023-02-28T05:34:38;94996.84;;;4.80;100.00
39301;BME280;25019;42.626;23.380;2023-02-28T05:37:05;94990.41;;;4.89;100.00
39301;BME280;25019;42.626;23.380;2023-02-28T05:39:32;94988.94;;;4.80;100.00
39301;BME280;25019;42.626;23.380;2023-02-28T05:41:57;95006.03;;;4.98;100.00
39301;BME280;25019;42.626;23.380;2023-02-28T05:44:23;94907.66;;;4.37;100.00
39301;BME280;25019;42.626;23.380;2023-02-28T05:46:49;95008.69;;;5.04;100.00
39301;BME280;25019;42.626;23.380;2023-02-28T05:49:15;94995.28;;;4.92;100.00
39301;BME280;25019;42.626;23.380;2023-02-28T05:51:40;94996.91;;;4.93;100.00
39301;BME280;25019;42.626;23.380;2023-02-28T05:54:06;95018.22;;;5.12;100.00
39301;BME280;25019;42.626;23.380;2023-02-28T05:56:32;95020.84;;;5.19;100.00
39301;BME280;25019;42.626;23.380;2023-02-28T05:59:00;94961.44;;;4.83;100.00
39301;BME280;25019;42.626;23.380;2023-02-28T06:01:43;94997.97;;;5.19;100.00
39301;BME280;25019;42.626;23.380;2023-02-28T06:04:14;95006.88;;;5.12;100.00
39301;BME280;25019;42.626;23.380;2023-02-28T06:06:49;95028.56;;;5.14;100.00
39301;BME280;25019;42.626;23.380;2023-02-28T06:09:16;94873.25;;;4.38;100.00
39301;BME280;25019;42.626;23.380;2023-02-28T06:11:42;95005.88;;;5.26;100.00
39301;BME280;25019;42.626;23.380;2023-02-28T06:14:14;95003.69;;;5.36;100.00
39301;BME280;25019;42.626;23.380;2023-02-28T06:16:40;95011.16;;;5.33;100.00
39301;BME280;25019;42.626;23.380;2023-02-28T06:19:06;95007.13;;;5.37;100.00
39301;BME280;25019;42.626;23.380;2023-02-28T06:21:32;95003.69;;;5.36;100.00
39301;BME280;25019;42.626;23.380;2023-02-28T06:23:58;95012.59;;;5.42;100.00
39301;BME280;25019;42.626;23.380;2023-02-28T06:26:25;95006.13;;;5.45;100.00
39301;BME280;25019;42.626;23.380;2023-02-28T06:28:51;95012.38;;;5.44;100.00
39301;BME280;25019;42.626;23.380;2023-02-28T06:31:17;95019.91;;;5.40;100.00
39301;BME280;25019;42.626;23.380;2023-02-28T06:33:45;95013.63;;;5.34;100.00
39301;BME280;25019;42.626;23.380;2023-02-28T06:36:12;94960.69;;;5.02;100.00
39301;BME280;25019;42.626;23.380;2023-02-28T06:38:39;95013.00;;;5.46;100.00
39301;BME280;25019;42.626;23.380;2023-02-28T06:41:05;94894.75;;;4.55;100.00
39301;BME280;25019;42.626;23.380;2023-02-28T06:43:34;94993.72;;;5.12;100.00
39301;BME280;25019;42.626;23.380;2023-02-28T06:46:02;95018.88;;;5.34;100.00
39301;BME280;25019;42.626;23.380;2023-02-28T06:48:28;95020.50;;;5.42;100.00
39301;BME280;25019;42.626;23.380;2023-02-28T06:51:09;95008.53;;;5.33;100.00
39301;BME280;25019;42.626;23.380;2023-02-28T06:53:35;95020.53;;;5.55;100.00
39301;BME280;25019;42.626;23.380;2023-02-28T06:56:05;95037.34;;;5.68;100.00
39301;BME280;25019;42.626;23.380;2023-02-28T06:58:32;94975.72;;;5.35;100.00
39301;BME280;25019;42.626;23.380;2023-02-28T07:00:58;95027.63;;;5.82;100.00
39301;BME280;25019;42.626;23.380;2023-02-28T07:03:23;95032.13;;;6.02;100.00
39301;BME280;25019;42.626;23.380;2023-02-28T07:05:49;95013.22;;;5.98;100.00
39301;BME280;25019;42.626;23.380;2023-02-28T07:08:15;95025.41;;;6.19;100.00
39301;BME280;25019;42.626;23.380;2023-02-28T07:10:41;95029.28;;;5.96;100.00
39301;BME280;25019;42.626;23.380;2023-02-28T07:13:08;95015.88;;;5.78;100.00
39301;BME280;25019;42.626;23.380;2023-02-28T07:15:35;95041.00;;;5.94;100.00
39301;BME280;25019;42.626;23.380;2023-02-28T07:18:01;95027.44;;;5.83;100.00
39301;BME280;25019;42.626;23.380;2023-02-28T07:20:26;95019.53;;;5.90;100.00
39301;BME280;25019;42.626;23.380;2023-02-28T07:22:52;95021.59;;;6.08;100.00
39301;BME280;25019;42.626;23.380;2023-02-28T07:25:26;94971.66;;;5.80;100.00
39301;BME280;25019;42.626;23.380;2023-02-28T07:27:52;95031.69;;;6.25;100.00
39301;BME280;25019;42.626;23.380;2023-02-28T07:30:18;95028.41;;;6.50;100.00
39301;BME280;25019;42.626;23.380;2023-02-28T07:32:44;95025.94;;;6.68;100.00
39301;BME280;25019;42.626;23.380;2023-02-28T07:35:09;95029.91;;;6.91;100.00
39301;BME280;25019;42.626;23.380;2023-02-28T07:37:35;94938.69;;;6.50;100.00
39301;BME280;25019;42.626;23.380;2023-02-28T07:40:06;95030.41;;;7.13;100.00
39301;BME280;25019;42.626;23.380;2023-02-28T07:42:35;95022.69;;;7.12;100.00
39301;BME280;25019;42.626;23.380;2023-02-28T07:45:04;94949.69;;;6.85;100.00
39301;BME280;25019;42.626;23.380;2023-02-28T07:47:30;95032.09;;;7.72;100.00
39301;BME280;25019;42.626;23.380;2023-02-28T07:49:56;95023.44;;;7.90;100.00
39301;BME280;25019;42.626;23.380;2023-02-28T07:52:21;95023.84;;;7.87;100.00
39301;BME280;25019;42.626;23.380;2023-02-28T07:54:49;94997.63;;;7.60;100.00
39301;BME280;25019;42.626;23.380;2023-02-28T07:57:15;95025.06;;;7.84;100.00
39301;BME280;25019;42.626;23.380;2023-02-28T07:59:41;95017.22;;;8.03;100.00
39301;BME280;25019;42.626;23.380;2023-02-28T08:02:06;94999.94;;;8.00;100.00
39301;BME280;25019;42.626;23.380;2023-02-28T08:04:32;95028.44;;;7.98;100.00
39301;BME280;25019;42.626;23.380;2023-02-28T08:06:58;95018.09;;;8.15;100.00
39301;BME280;25019;42.626;23.380;2023-02-28T08:09:24;95027.31;;;8.31;100.00
39301;BME280;25019;42.626;23.380;2023-02-28T08:11:49;95028.50;;;8.35;100.00
39301;BME280;25019;42.626;23.380;2023-02-28T08:14:15;95032.44;;;8.07;100.00
39301;BME280;25019;42.626;23.380;2023-02-28T08:16:41;95026.63;;;8.17;100.00
39301;BME280;25019;42.626;23.380;2023-02-28T08:19:08;95009.22;;;8.28;100.00
39301;BME280;25019;42.626;23.380;2023-02-28T08:21:34;95005.09;;;8.14;100.00
39301;BME280;25019;42.626;23.380;2023-02-28T08:24:00;94964.47;;;7.83;100.00
39301;BME280;25019;42.626;23.380;2023-02-28T08:26:26;95014.91;;;8.32;100.00
39301;BME280;25019;42.626;23.380;2023-02-28T08:28:52;95017.41;;;8.45;100.00
39301;BME280;25019;42.626;23.380;2023-02-28T08:31:18;95027.91;;;8.59;100.00
39301;BME280;25019;42.626;23.380;2023-02-28T08:33:45;94939.03;;;8.25;100.00
39301;BME280;25019;42.626;23.380;2023-02-28T08:36:11;95028.28;;;8.99;100.00
39301;BME280;25019;42.626;23.380;2023-02-28T08:38:37;95034.63;;;9.29;100.00
39301;BME280;25019;42.626;23.380;2023-02-28T08:41:06;95038.09;;;9.29;100.00
39301;BME280;25019;42.626;23.380;2023-02-28T08:43:33;94920.59;;;8.37;100.00
39301;BME280;25019;42.626;23.380;2023-02-28T08:45:59;95031.47;;;9.20;100.00
39301;BME280;25019;42.626;23.380;2023-02-28T08:48:26;95022.19;;;9.29;100.00
39301;BME280;25019;42.626;23.380;2023-02-28T08:51:00;95029.19;;;9.54;100.00
39301;BME280;25019;42.626;23.380;2023-02-28T08:53:27;94952.56;;;9.22;100.00
39301;BME280;25019;42.626;23.380;2023-02-28T08:56:04;95027.94;;;9.69;100.00
39301;BME280;25019;42.626;23.380;2023-02-28T08:58:31;95018.78;;;9.83;100.00
39301;BME280;25019;42.626;23.380;2023-02-28T09:00:57;94916.66;;;9.50;100.00
39301;BME280;25019;42.626;23.380;2023-02-28T09:03:23;95025.25;;;9.99;100.00
39301;BME280;25019;42.626;23.380;2023-02-28T09:05:59;95026.31;;;10.10;100.00
39301;BME280;25019;42.626;23.380;2023-02-28T09:08:26;94956.59;;;10.03;100.00
39301;BME280;25019;42.626;23.380;2023-02-28T09:10:53;94931.09;;;10.02;100.00
39301;BME280;25019;42.626;23.380;2023-02-28T09:13:19;94948.28;;;10.35;100.00
39301;BME280;25019;42.626;23.380;2023-02-28T09:15:45;95024.69;;;10.69;100.00
39301;BME280;25019;42.626;23.380;2023-02-28T09:18:11;95021.69;;;10.77;100.00
39301;BME280;25019;42.626;23.380;2023-02-28T09:20:38;95029.41;;;10.78;100.00
39301;BME280;25019;42.626;23.380;2023-02-28T09:23:05;95027.34;;;10.69;100.00
39301;BME280;25019;42.626;23.380;2023-02-28T09:25:31;94968.22;;;10.38;100.00
39301;BME280;25019;42.626;23.380;2023-02-28T09:27:56;95028.31;;;11.03;100.00
39301;BME280;25019;42.626;23.380;2023-02-28T09:30:22;94953.25;;;10.43;100.00
39301;BME280;25019;42.626;23.380;2023-02-28T09:32:48;95031.47;;;10.88;100.00
39301;BME280;25019;42.626;23.380;2023-02-28T09:35:18;94951.16;;;10.22;100.00
39301;BME280;25019;42.626;23.380;2023-02-28T09:37:44;95023.84;;;10.92;100.00
39301;BME280;25019;42.626;23.380;2023-02-28T09:40:11;95023.84;;;10.92;100.00
39301;BME280;25019;42.626;23.380;2023-02-28T09:42:38;95007.13;;;10.79;100.00
39301;BME280;25019;42.626;23.380;2023-02-28T09:45:17;95006.91;;;10.81;100.00
39301;BME280;25019;42.626;23.380;2023-02-28T09:47:46;94966.84;;;10.59;100.00
39301;BME280;25019;42.626;23.380;2023-02-28T09:50:28;94983.78;;;10.82;100.00
39301;BME280;25019;42.626;23.380;2023-02-28T09:52:55;95012.97;;;10.93;100.00
39301;BME280;25019;42.626;23.380;2023-02-28T09:55:34;94958.28;;;10.69;100.00
39301;BME280;25019;42.626;23.380;2023-02-28T09:58:03;95006.03;;;10.92;100.00
39301;BME280;25019;42.626;23.380;2023-02-28T10:00:36;95017.34;;;11.00;100.00
39301;BME280;25019;42.626;23.380;2023-02-28T10:03:33;95005.28;;;10.80;100.00
39301;BME280;25019;42.626;23.380;2023-02-28T10:09:03;95013.06;;;10.46;100.00
39301;BME280;25019;42.626;23.380;2023-02-28T10:11:32;95003.47;;;10.45;100.00
39301;BME280;25019;42.626;23.380;2023-02-28T10:17:03;94997.09;;;10.34;100.00
39301;BME280;25019;42.626;23.380;2023-02-28T10:22:28;94997.69;;;10.48;100.00
39301;BME280;25019;42.626;23.380;2023-02-28T10:24:55;94989.81;;;10.77;100.00
39301;BME280;25019;42.626;23.380;2023-02-28T10:27:29;94937.94;;;10.74;100.00
39301;BME280;25019;42.626;23.380;2023-02-28T10:29:57;94988.25;;;11.51;100.00
39301;BME280;25019;42.626;23.380;2023-02-28T10:32:35;94979.81;;;11.71;100.00
39301;BME280;25019;42.626;23.380;2023-02-28T10:35:18;94984.81;;;11.84;100.00
39301;BME280;25019;42.626;23.380;2023-02-28T10:37:46;94980.13;;;11.58;100.00
39301;BME280;25019;42.626;23.380;2023-02-28T10:43:00;94970.09;;;12.11;100.00
39301;BME280;25019;42.626;23.380;2023-02-28T10:45:28;94950.06;;;11.91;100.00
39301;BME280;25019;42.626;23.380;2023-02-28T10:47:58;94964.97;;;11.92;100.00
39301;BME280;25019;42.626;23.380;2023-02-28T10:50:35;94957.84;;;12.10;100.00
39301;BME280;25019;42.626;23.380;2023-02-28T11:04:02;94879.25;;;12.07;100.00
39301;BME280;25019;42.626;23.380;2023-02-28T11:06:34;94881.63;;;12.48;100.00
39301;BME280;25019;42.626;23.380;2023-02-28T11:09:15;94938.09;;;13.17;100.00
39301;BME280;25019;42.626;23.380;2023-02-28T11:11:45;94927.25;;;13.29;100.00
39301;BME280;25019;42.626;23.380;2023-02-28T11:14:22;94932.00;;;12.72;100.00
39301;BME280;25019;42.626;23.380;2023-02-28T11:16:50;94927.59;;;12.38;100.00
39301;BME280;25019;42.626;23.380;2023-02-28T11:19:24;94925.44;;;12.57;100.00
39301;BME280;25019;42.626;23.380;2023-02-28T11:21:57;94916.75;;;11.54;100.00
39301;BME280;25019;42.626;23.380;2023-02-28T11:24:33;94921.03;;;11.56;100.00
39301;BME280;25019;42.626;23.380;2023-02-28T11:27:01;94922.25;;;11.82;100.00
39301;BME280;25019;42.626;23.380;2023-02-28T11:29:31;94896.03;;;12.08;100.00
39301;BME280;25019;42.626;23.380;2023-02-28T11:32:33;94928.84;;;12.53;100.00
39301;BME280;25019;42.626;23.380;2023-02-28T11:37:36;94918.09;;;12.92;100.00
39301;BME280;25019;42.626;23.380;2023-02-28T11:40:05;94917.88;;;12.94;100.00
39301;BME280;25019;42.626;23.380;2023-02-28T11:43:04;94918.50;;;13.06;100.00
39301;BME280;25019;42.626;23.380;2023-02-28T11:45:47;94908.59;;;13.01;100.00
39301;BME280;25019;42.626;23.380;2023-02-28T12:04:12;94912.50;;;12.05;100.00
39301;BME280;25019;42.626;23.380;2023-02-28T12:09:31;94907.66;;;11.84;100.00
39301;BME280;25019;42.626;23.380;2023-02-28T12:15:28;94904.97;;;12.63;100.00
39301;BME280;25019;42.626;23.380;2023-02-28T12:17:46;94910.47;;;11.95;100.00
39301;BME280;25019;42.626;23.380;2023-02-28T12:22:57;94901.06;;;11.70;100.00
39301;BME280;25019;42.626;23.380;2023-02-28T12:28:09;94889.97;;;11.95;100.00
39301;BME280;25019;42.626;23.380;2023-02-28T12:30:42;94801.75;;;11.30;100.00
39301;BME280;25019;42.626;23.380;2023-02-28T12:33:14;94899.56;;;12.13;100.00
39301;BME280;25019;42.626;23.380;2023-02-28T12:35:51;94898.72;;;11.74;100.00
39301;BME280;25019;42.626;23.380;2023-02-28T12:41:51;94895.53;;;11.94;100.00
39301;BME280;25019;42.626;23.380;2023-02-28T12:44:46;94884.28;;;11.69;100.00
39301;BME280;25019;42.626;23.380;2023-02-28T12:47:17;94905.94;;;11.95;100.00
39301;BME280;25019;42.626;23.380;2023-02-28T12:49:50;94891.69;;;12.02;100.00
39301;BME280;25019;42.626;23.380;2023-02-28T12:52:23;94896.59;;;12.10;100.00
39301;BME280;25019;42.626;23.380;2023-02-28T12:55:16;94901.66;;;12.11;100.00
39301;BME280;25019;42.626;23.380;2023-02-28T13:00:30;94843.59;;;12.08;100.00
39301;BME280;25019;42.626;23.380;2023-02-28T13:11:33;94903.28;;;11.27;100.00
39301;BME280;25019;42.626;23.380;2023-02-28T13:14:05;94893.94;;;11.24;100.00
39301;BME280;25019;42.626;23.380;2023-02-28T13:16:55;94901.97;;;11.13;100.00
39301;BME280;25019;42.626;23.380;2023-02-28T13:19:24;94892.03;;;10.91;100.00
39301;BME280;25019;42.626;23.380;2023-02-28T13:21:51;94901.78;;;10.73;100.00
39301;BME280;25019;42.626;23.380;2023-02-28T13:29:37;94901.41;;;10.82;100.00
39301;BME280;25019;42.626;23.380;2023-02-28T13:39:54;94896.44;;;11.14;100.00
39301;BME280;25019;42.626;23.380;2023-02-28T13:42:58;94893.31;;;11.05;100.00
39301;BME280;25019;42.626;23.380;2023-02-28T13:45:26;94879.41;;;11.15;100.00
39301;BME280;25019;42.626;23.380;2023-02-28T13:48:00;94882.56;;;11.29;100.00
39301;BME280;25019;42.626;23.380;2023-02-28T13:55:52;94880.47;;;11.14;100.00
39301;BME280;25019;42.626;23.380;2023-02-28T14:04:03;94877.66;;;11.21;100.00
39301;BME280;25019;42.626;23.380;2023-02-28T14:06:38;94886.94;;;10.89;100.00
39301;BME280;25019;42.626;23.380;2023-02-28T14:09:19;94885.66;;;10.92;100.00
39301;BME280;25019;42.626;23.380;2023-02-28T14:11:47;94890.63;;;10.88;100.00
39301;BME280;25019;42.626;23.380;2023-02-28T14:17:01;94888.50;;;10.73;100.00
39301;BME280;25019;42.626;23.380;2023-02-28T14:19:30;94873.28;;;10.69;100.00
39301;BME280;25019;42.626;23.380;2023-02-28T14:25:09;94883.47;;;10.60;100.00
39301;BME280;25019;42.626;23.380;2023-02-28T14:35:36;94893.56;;;10.46;100.00
39301;BME280;25019;42.626;23.380;2023-02-28T14:38:07;94891.63;;;10.17;100.00
39301;BME280;25019;42.626;23.380;2023-02-28T14:40:38;94863.47;;;10.04;100.00
39301;BME280;25019;42.626;23.380;2023-02-28T14:43:16;94881.13;;;10.11;100.00
39301;BME280;25019;42.626;23.380;2023-02-28T14:45:49;94890.38;;;10.08;100.00
39301;BME280;25019;42.626;23.380;2023-02-28T14:48:16;94895.13;;;9.94;100.00
39301;BME280;25019;42.626;23.380;2023-02-28T14:50:49;94751.34;;;8.97;100.00
39301;BME280;25019;42.626;23.380;2023-02-28T14:53:18;94886.00;;;9.78;100.00
39301;BME280;25019;42.626;23.380;2023-02-28T14:55:46;94890.59;;;9.71;100.00
39301;BME280;25019;42.626;23.380;2023-02-28T14:58:39;94890.59;;;9.59;100.00
39301;BME280;25019;42.626;23.380;2023-02-28T15:01:04;94813.56;;;8.94;100.00
39301;BME280;25019;42.626;23.380;2023-02-28T15:03:35;94889.06;;;9.16;100.00
39301;BME280;25019;42.626;23.380;2023-02-28T15:06:03;94883.31;;;8.88;100.00
39301;BME280;25019;42.626;23.380;2023-02-28T15:08:30;94836.63;;;8.45;100.00
39301;BME280;25019;42.626;23.380;2023-02-28T15:11:15;94881.91;;;8.74;100.00
39301;BME280;25019;42.626;23.380;2023-02-28T15:13:54;94875.63;;;8.68;100.00
39301;BME280;25019;42.626;23.380;2023-02-28T15:16:38;94866.91;;;8.67;100.00
39301;BME280;25019;42.626;23.380;2023-02-28T15:19:30;94828.94;;;8.24;100.00
39301;BME280;25019;42.626;23.380;2023-02-28T15:22:04;94892.66;;;8.60;100.00
39301;BME280;25019;42.626;23.380;2023-02-28T15:24:37;94895.31;;;8.60;100.00